createdAt,value
2022-10-25T00:04:36.513Z,98579.47
2022-10-25T00:09:38.355Z,98584.16
2022-10-25T00:14:40.230Z,98587.55
2022-10-25T00:19:42.037Z,98590.31
2022-10-25T00:24:43.809Z,98590.24
2022-10-25T00:29:45.655Z,98589.02
2022-10-25T00:34:47.909Z,98586.96
2022-10-25T00:39:49.660Z,98583.39
2022-10-25T00:44:57.686Z,98588.03
2022-10-25T00:50:05.836Z,98590.57
2022-10-25T00:55:10.050Z,98592.71
2022-10-25T01:00:12.464Z,98581.09
2022-10-25T01:05:17.008Z,98580.41
2022-10-25T01:10:19.085Z,98573.92
2022-10-25T01:15:28.796Z,98574.25
2022-10-25T01:20:58.189Z,98575.32
2022-10-25T01:26:21.904Z,98573.27
2022-10-25T01:31:41.715Z,98577.61
2022-10-25T01:36:57.219Z,98578.86
2022-10-25T01:42:06.069Z,98575.93
2022-10-25T01:47:19.095Z,98575.44
2022-10-25T01:52:22.988Z,98582.69
2022-10-25T01:57:32.917Z,98573.70
2022-10-25T02:03:09.353Z,98565.53
2022-10-25T02:08:36.175Z,98564.44
2022-10-25T02:13:57.073Z,98570.69
2022-10-25T02:19:02.479Z,98566.64
2022-10-25T02:24:28.042Z,98568.17
2022-10-25T02:29:32.130Z,98567.65
2022-10-25T02:34:34.425Z,98568.92
2022-10-25T02:39:36.487Z,98573.51
2022-10-25T02:44:38.305Z,98575.30
2022-10-25T02:49:40.088Z,98576.23
2022-10-25T02:54:41.907Z,98581.83
2022-10-25T02:59:43.758Z,98583.50
2022-10-25T03:04:45.575Z,98584.84
2022-10-25T03:09:47.708Z,98586.33
2022-10-25T03:14:49.487Z,98583.44
2022-10-25T03:19:51.249Z,98589.65
2022-10-25T03:24:53.026Z,98589.72
2022-10-25T03:29:54.907Z,98589.56
2022-10-25T03:34:56.621Z,98598.14
2022-10-25T03:39:58.540Z,98599.91
2022-10-25T03:45:00.332Z,98599.70
2022-10-25T03:50:02.343Z,98599.50
2022-10-25T03:55:04.725Z,98594.34
2022-10-25T04:00:08.305Z,98595.64
2022-10-25T04:05:16.062Z,98598.23
2022-10-25T04:10:19.573Z,98602.41
2022-10-25T04:15:22.022Z,98603.07
2022-10-25T04:20:23.960Z,98601.05
2022-10-25T04:25:27.598Z,98595.91
2022-10-25T04:30:29.587Z,98592.17
2022-10-25T04:35:31.314Z,98592.77
2022-10-25T04:40:33.139Z,98589.32
2022-10-25T04:45:34.905Z,98590.16
2022-10-25T04:50:38.313Z,98592.42
2022-10-25T04:55:40.094Z,98595.48
2022-10-25T05:00:41.930Z,98591.19
2022-10-25T05:05:43.742Z,98596.67
2022-10-25T05:10:53.877Z,98604.22
2022-10-25T05:15:57.085Z,98607.33
2022-10-25T05:21:01.514Z,98607.25
2022-10-25T05:26:10.372Z,98607.57
2022-10-25T05:31:15.884Z,98615.06
2022-10-25T05:36:19.147Z,98624.14
2022-10-25T05:41:21.572Z,98625.92
2022-10-25T05:46:23.857Z,98634.18
2022-10-25T05:51:34.732Z,98631.31
2022-10-25T05:56:39.000Z,98630.45
2022-10-25T06:01:45.679Z,98630.74
2022-10-25T06:06:47.831Z,98633.86
2022-10-25T06:11:49.725Z,98648.89
2022-10-25T06:16:51.531Z,98651.05
2022-10-25T06:21:55.052Z,98661.52
2022-10-25T06:26:56.949Z,98671.73
2022-10-25T06:31:58.981Z,98678.89
2022-10-25T06:37:00.777Z,98689.11
2022-10-25T06:42:02.536Z,98695.52
2022-10-25T06:47:17.023Z,98699.60
2022-10-25T06:52:19.695Z,98695.03
2022-10-25T06:57:21.447Z,98696.73
2022-10-25T07:02:23.535Z,98706.52
2022-10-25T07:07:25.652Z,98712.02
2022-10-25T07:12:27.409Z,98709.55
2022-10-25T07:17:29.191Z,98708.02
2022-10-25T07:22:31.005Z,98705.55
2022-10-25T07:27:33.459Z,98707.95
2022-10-25T07:32:38.819Z,98716.02
2022-10-25T07:37:43.503Z,98737.28
2022-10-25T07:42:45.286Z,98757.84
2022-10-25T07:47:50.630Z,98754.02
2022-10-25T07:52:52.745Z,98747.48
2022-10-25T07:58:03.916Z,98746.23
2022-10-25T08:03:05.749Z,98749.23
2022-10-25T08:08:07.536Z,98748.92
2022-10-25T08:13:09.552Z,98755.48
2022-10-25T08:18:11.269Z,98756.00
2022-10-25T08:23:13.110Z,98745.41
2022-10-25T08:28:15.451Z,98741.16
2022-10-25T08:33:17.286Z,98742.84
2022-10-25T08:38:19.170Z,98741.68
2022-10-25T08:43:41.245Z,98749.42
2022-10-25T08:48:48.997Z,98741.09
2022-10-25T08:59:02.409Z,98741.75
2022-10-25T09:04:04.348Z,98734.11
2022-10-25T09:09:28.473Z,98730.98
2022-10-25T09:14:30.233Z,98727.34
2022-10-25T09:19:36.135Z,98732.38
2022-10-25T09:24:56.851Z,98735.65
2022-10-25T09:30:07.955Z,98736.83
2022-10-25T09:35:23.017Z,98738.61
2022-10-25T09:40:33.957Z,98748.21
2022-10-25T09:45:49.253Z,98756.29
2022-10-25T09:50:57.523Z,98751.42
2022-10-25T09:56:01.350Z,98759.15
2022-10-25T10:01:17.727Z,98766.59
2022-10-25T10:06:40.354Z,98764.51
2022-10-25T10:11:44.320Z,98763.30
2022-10-25T10:16:50.119Z,98762.52
2022-10-25T10:21:56.596Z,98767.77
2022-10-25T10:27:00.888Z,98764.34
2022-10-25T10:32:22.600Z,98755.75
2022-10-25T10:37:26.873Z,98747.18
2022-10-25T10:47:51.447Z,98746.46
2022-10-25T10:52:55.251Z,98750.16
2022-10-25T10:58:07.122Z,98747.50
2022-10-25T11:03:48.790Z,98751.46
2022-10-25T11:09:23.616Z,98754.16
2022-10-25T11:14:25.372Z,98750.69
2022-10-25T11:19:55.957Z,98746.89
2022-10-25T11:25:13.256Z,98739.20
2022-10-25T11:30:20.009Z,98740.61
2022-10-25T11:35:40.414Z,98740.02
2022-10-25T11:41:20.584Z,98746.02
2022-10-25T11:46:43.896Z,98747.63
2022-10-25T11:57:48.224Z,98746.19
2022-10-25T12:02:56.284Z,98741.98
2022-10-25T12:08:14.787Z,98746.73
2022-10-25T12:13:26.603Z,98754.29
2022-10-25T12:18:36.948Z,98760.40
2022-10-25T12:23:46.936Z,98750.44
2022-10-25T12:28:50.323Z,98744.09
2022-10-25T12:34:17.137Z,98748.71
2022-10-25T12:39:38.623Z,98754.64
2022-10-25T12:45:02.142Z,98752.09
2022-10-25T12:50:23.108Z,98754.27
2022-10-25T12:55:34.188Z,98749.07
2022-10-25T13:00:46.962Z,98744.38
2022-10-25T13:06:10.168Z,98746.65
2022-10-25T13:11:12.652Z,98750.54
2022-10-25T13:16:27.143Z,98754.64
2022-10-25T13:21:53.709Z,98762.10
2022-10-25T13:27:13.855Z,98761.84
2022-10-25T13:32:21.671Z,98762.77
2022-10-25T13:37:32.600Z,98765.90
2022-10-25T13:42:38.306Z,98767.05
2022-10-25T13:47:49.434Z,98764.92
2022-10-25T13:53:03.357Z,98768.40
2022-10-25T13:58:32.292Z,98772.59
2022-10-25T14:03:52.012Z,98775.49
2022-10-25T14:09:08.588Z,98784.95
2022-10-25T14:14:19.620Z,98783.63
2022-10-25T14:19:37.482Z,98783.01
2022-10-25T14:24:42.331Z,98786.81
2022-10-25T14:29:44.106Z,98788.04
2022-10-25T14:34:51.062Z,98793.20
2022-10-25T14:39:53.960Z,98798.52
2022-10-25T14:44:55.735Z,98800.40
2022-10-25T14:49:59.353Z,98807.16
2022-10-25T14:55:04.399Z,98806.15
2022-10-25T15:00:06.880Z,98805.69
2022-10-25T15:05:18.738Z,98808.12
2022-10-25T15:10:35.959Z,98812.67
2022-10-25T15:15:44.912Z,98810.57
2022-10-25T15:20:50.105Z,98815.95
2022-10-25T15:25:51.880Z,98817.38
2022-10-25T15:30:54.255Z,98816.85
2022-10-25T15:36:05.276Z,98819.80
2022-10-25T15:41:08.624Z,98824.42
2022-10-25T15:46:33.535Z,98827.29
2022-10-25T15:51:39.130Z,98829.27
2022-10-25T15:56:40.916Z,98834.39
2022-10-25T16:01:45.745Z,98839.12
2022-10-25T16:06:48.202Z,98842.39
2022-10-25T16:11:54.258Z,98835.39
2022-10-25T16:16:59.004Z,98843.50
2022-10-25T16:22:00.763Z,98843.38
2022-10-25T16:27:02.595Z,98845.35
2022-10-25T16:32:05.482Z,98847.73
2022-10-25T16:37:09.276Z,98859.59
2022-10-25T16:42:27.363Z,98867.53
2022-10-25T16:47:29.402Z,98870.75
2022-10-25T16:52:31.185Z,98867.83
2022-10-25T16:57:33.080Z,98872.07
2022-10-25T17:02:34.840Z,98873.42
2022-10-25T17:07:36.905Z,98880.50
2022-10-25T17:12:50.428Z,98887.75
2022-10-25T17:17:52.469Z,98895.27
2022-10-25T17:22:54.683Z,98897.47
2022-10-25T17:27:56.472Z,98895.63
2022-10-25T17:32:58.244Z,98905.44
2022-10-25T17:37:59.957Z,98915.85
2022-10-25T17:43:01.732Z,98912.07
2022-10-25T17:48:04.420Z,98913.70
2022-10-25T17:53:06.335Z,98909.45
2022-10-25T17:58:08.047Z,98913.98
2022-10-25T18:03:09.893Z,98921.27
2022-10-25T18:08:11.669Z,98918.31
2022-10-25T18:13:13.361Z,98921.91
2022-10-25T18:18:18.729Z,98925.60
2022-10-25T18:23:20.535Z,98933.58
2022-10-25T18:28:22.251Z,98933.72
2022-10-25T18:33:25.272Z,98935.04
2022-10-25T18:38:27.731Z,98936.84
2022-10-25T18:43:29.448Z,98933.48
2022-10-25T18:48:31.149Z,98931.38
2022-10-25T18:53:35.577Z,98929.83
2022-10-25T18:58:37.970Z,98928.35
2022-10-25T19:03:41.097Z,98936.23
2022-10-25T19:08:43.354Z,98937.13
2022-10-25T19:13:48.906Z,98942.25
2022-10-25T19:18:53.345Z,98942.40
2022-10-25T19:23:55.322Z,98938.64
2022-10-25T19:28:59.567Z,98935.05
2022-10-25T19:34:03.377Z,98932.27
2022-10-25T19:39:05.422Z,98933.66
2022-10-25T19:44:07.343Z,98935.01
2022-10-25T19:49:11.227Z,98940.33
2022-10-25T19:54:13.085Z,98948.71
2022-10-25T19:59:14.950Z,98957.00
2022-10-25T20:04:17.111Z,98950.33
2022-10-25T20:09:19.076Z,98956.81
2022-10-25T20:14:20.892Z,98960.97
2022-10-25T20:19:22.734Z,98963.94
2022-10-25T20:24:25.045Z,98965.88
2022-10-25T20:29:27.023Z,98969.53
2022-10-25T20:34:28.805Z,98972.14
2022-10-25T20:39:30.746Z,98973.60
2022-10-25T20:44:32.492Z,98972.16
2022-10-25T20:49:34.435Z,98968.47
2022-10-25T20:54:36.144Z,98974.61
2022-10-25T20:59:37.921Z,98976.66
2022-10-25T21:04:53.391Z,98977.74
2022-10-25T21:09:55.735Z,98976.64
2022-10-25T21:15:06.871Z,98976.95
2022-10-25T21:20:11.492Z,98971.05
2022-10-25T21:25:14.301Z,98965.61
2022-10-25T21:30:16.165Z,98965.49
2022-10-25T21:35:18.300Z,98967.18
2022-10-25T21:40:20.189Z,98970.50
2022-10-25T21:45:21.905Z,98968.86
2022-10-25T21:50:23.680Z,98968.52
2022-10-25T21:55:25.468Z,98968.10
2022-10-25T22:00:27.234Z,98972.08
2022-10-25T22:05:29.156Z,98971.70
2022-10-25T22:10:30.880Z,98960.50
2022-10-25T22:15:32.635Z,98964.21
2022-10-25T22:20:34.453Z,98963.17
2022-10-25T22:25:36.249Z,98971.36
2022-10-25T22:30:38.000Z,98974.20
2022-10-25T22:35:39.736Z,98972.74
2022-10-25T22:40:41.449Z,98970.52
2022-10-25T22:45:43.192Z,98973.63
2022-10-25T22:50:53.400Z,98985.77
2022-10-25T22:56:01.783Z,98985.77
2022-10-25T23:06:16.844Z,98992.63
2022-10-25T23:11:21.271Z,98990.59
2022-10-25T23:16:29.100Z,98997.34
2022-10-25T23:21:31.217Z,99001.67
2022-10-25T23:26:36.457Z,98999.27
2022-10-25T23:31:40.049Z,99001.71
2022-10-25T23:36:41.983Z,99000.65
2022-10-25T23:41:44.160Z,99004.15
2022-10-25T23:46:45.940Z,99001.02
2022-10-25T23:51:47.791Z,99002.06
2022-10-25T23:56:49.520Z,99007.04
